Terminal Aerodrome Forecast
Issued by NWS

Home | Current Version | Previous Version | Text Only | Print | Product List | Glossary On
Versions: 1 2 3 4 5 6 7 8 9 10 11 12 13 14 15 16 17 18 19 20 21 22 23 24 25
000
FTUS46 KMTR 052353
TAFSFO
TAF
KSFO 052353Z 0600/0706 25015G21KT P6SM FEW010 SCT250
     FM060400 24012KT P6SM FEW010 SCT250
      TEMPO 0607/0609 BKN010 OVC250
     FM060900 24007KT P6SM OVC010
     FM061700 21008KT P6SM FEW012 SCT250
     FM062100 25016G21KT P6SM FEW012 SCT250
     FM070400 26016KT P6SM FEW010 SCT250=

USA.gov is the U.S. government's official web portal to all federal, state and local government web resources and services.